sensor_id;sensor_type;location;lat;lon;timestamp;temperature;humidity
69281;SHT31;56392;51.082;17.080;2024-03-02T00:03:28;10.13;93.79
69281;SHT31;56392;51.082;17.080;2024-03-02T00:08:57;10.16;93.66
69281;SHT31;56392;51.082;17.080;2024-03-02T00:14:22;10.17;93.53
69281;SHT31;56392;51.082;17.080;2024-03-02T00:19:47;10.16;93.46
69281;SHT31;56392;51.082;17.080;2024-03-02T00:25:10;10.23;93.39
69281;SHT31;56392;51.082;17.080;2024-03-02T00:30:57;10.23;93.42
69281;SHT31;56392;51.082;17.080;2024-03-02T00:36:24;10.17;93.37
69281;SHT31;56392;51.082;17.080;2024-03-02T00:41:48;10.16;93.23
69281;SHT31;56392;51.082;17.080;2024-03-02T00:47:13;10.10;93.56
69281;SHT31;56392;51.082;17.080;2024-03-02T00:52:36;10.10;93.52
69281;SHT31;56392;51.082;17.080;2024-03-02T00:58:00;10.05;93.56
69281;SHT31;56392;51.082;17.080;2024-03-02T01:03:25;10.01;93.56
69281;SHT31;56392;51.082;17.080;2024-03-02T01:08:48;9.99;93.65
69281;SHT31;56392;51.082;17.080;2024-03-02T01:14:13;10.01;93.54
69281;SHT31;56392;51.082;17.080;2024-03-02T01:19:43;10.03;93.52
69281;SHT31;56392;51.082;17.080;2024-03-02T01:25:08;10.03;93.29
69281;SHT31;56392;51.082;17.080;2024-03-02T01:30:31;10.01;93.35
69281;SHT31;56392;51.082;17.080;2024-03-02T01:35:56;9.99;93.42
69281;SHT31;56392;51.082;17.080;2024-03-02T01:41:21;9.95;93.49
69281;SHT31;56392;51.082;17.080;2024-03-02T01:46:46;9.98;93.40
69281;SHT31;56392;51.082;17.080;2024-03-02T01:52:11;9.99;93.27
69281;SHT31;56392;51.082;17.080;2024-03-02T01:57:34;9.99;93.22
69281;SHT31;56392;51.082;17.080;2024-03-02T02:02:58;9.99;93.12
69281;SHT31;56392;51.082;17.080;2024-03-02T02:08:22;9.94;92.93
69281;SHT31;56392;51.082;17.080;2024-03-02T02:13:46;9.84;93.02
69281;SHT31;56392;51.082;17.080;2024-03-02T02:19:09;9.73;93.05
69281;SHT31;56392;51.082;17.080;2024-03-02T02:24:33;9.68;93.18
69281;SHT31;56392;51.082;17.080;2024-03-02T02:29:57;9.52;93.37
69281;SHT31;56392;51.082;17.080;2024-03-02T02:35:21;9.38;93.58
69281;SHT31;56392;51.082;17.080;2024-03-02T02:40:47;9.23;93.77
69281;SHT31;56392;51.082;17.080;2024-03-02T02:46:10;9.12;93.64
69281;SHT31;56392;51.082;17.080;2024-03-02T02:51:33;9.00;94.42
69281;SHT31;56392;51.082;17.080;2024-03-02T02:57:00;8.93;94.22
69281;SHT31;56392;51.082;17.080;2024-03-02T03:02:23;8.76;93.96
69281;SHT31;56392;51.082;17.080;2024-03-02T03:07:46;8.73;94.95
69281;SHT31;56392;51.082;17.080;2024-03-02T03:13:13;8.95;95.23
69281;SHT31;56392;51.082;17.080;2024-03-02T03:18:36;9.07;94.76
69281;SHT31;56392;51.082;17.080;2024-03-02T03:24:00;9.20;94.38
69281;SHT31;56392;51.082;17.080;2024-03-02T03:29:24;9.24;94.03
69281;SHT31;56392;51.082;17.080;2024-03-02T03:34:48;9.30;93.73
69281;SHT31;56392;51.082;17.080;2024-03-02T03:40:11;9.41;93.40
69281;SHT31;56392;51.082;17.080;2024-03-02T03:45:37;9.43;93.30
69281;SHT31;56392;51.082;17.080;2024-03-02T03:51:00;9.48;92.98
69281;SHT31;56392;51.082;17.080;2024-03-02T03:56:24;9.45;92.82
69281;SHT31;56392;51.082;17.080;2024-03-02T04:01:49;9.57;92.70
69281;SHT31;56392;51.082;17.080;2024-03-02T04:07:12;9.62;92.49
69281;SHT31;56392;51.082;17.080;2024-03-02T04:12:36;9.57;92.22
69281;SHT31;56392;51.082;17.080;2024-03-02T04:18:00;9.57;92.21
69281;SHT31;56392;51.082;17.080;2024-03-02T04:23:26;9.59;92.02
69281;SHT31;56392;51.082;17.080;2024-03-02T04:28:49;9.61;91.94
69281;SHT31;56392;51.082;17.080;2024-03-02T04:34:14;9.52;91.88
69281;SHT31;56392;51.082;17.080;2024-03-02T04:39:37;9.54;91.74
69281;SHT31;56392;51.082;17.080;2024-03-02T04:45:00;9.51;91.67
69281;SHT31;56392;51.082;17.080;2024-03-02T04:50:25;9.47;91.62
69281;SHT31;56392;51.082;17.080;2024-03-02T04:55:49;9.36;91.80
69281;SHT31;56392;51.082;17.080;2024-03-02T05:01:46;9.31;91.86
69281;SHT31;56392;51.082;17.080;2024-03-02T05:07:12;9.22;91.80
69281;SHT31;56392;51.082;17.080;2024-03-02T05:12:35;9.10;91.97
69281;SHT31;56392;51.082;17.080;2024-03-02T05:18:18;9.02;92.10
69281;SHT31;56392;51.082;17.080;2024-03-02T05:23:44;8.93;92.19
69281;SHT31;56392;51.082;17.080;2024-03-02T05:29:08;8.83;92.45
69281;SHT31;56392;51.082;17.080;2024-03-02T05:34:32;8.82;92.51
69281;SHT31;56392;51.082;17.080;2024-03-02T05:39:59;8.80;92.35
69281;SHT31;56392;51.082;17.080;2024-03-02T05:45:22;8.77;92.34
69281;SHT31;56392;51.082;17.080;2024-03-02T05:50:45;8.80;92.30
69281;SHT31;56392;51.082;17.080;2024-03-02T05:56:10;8.76;92.17
69281;SHT31;56392;51.082;17.080;2024-03-02T06:01:34;8.77;92.05
69281;SHT31;56392;51.082;17.080;2024-03-02T06:06:57;8.85;91.85
69281;SHT31;56392;51.082;17.080;2024-03-02T06:12:22;8.83;91.81
69281;SHT31;56392;51.082;17.080;2024-03-02T06:17:45;8.87;91.70
69281;SHT31;56392;51.082;17.080;2024-03-02T06:23:09;8.95;91.56
69281;SHT31;56392;51.082;17.080;2024-03-02T06:28:33;9.06;91.33
69281;SHT31;56392;51.082;17.080;2024-03-02T06:33:56;9.17;91.00
69281;SHT31;56392;51.082;17.080;2024-03-02T06:39:20;9.33;90.75
69281;SHT31;56392;51.082;17.080;2024-03-02T06:44:49;9.54;90.44
69281;SHT31;56392;51.082;17.080;2024-03-02T06:50:13;9.68;89.95
69281;SHT31;56392;51.082;17.080;2024-03-02T06:55:37;9.99;89.53
69281;SHT31;56392;51.082;17.080;2024-03-02T07:01:01;10.39;88.53
69281;SHT31;56392;51.082;17.080;2024-03-02T07:06:25;10.53;86.53
69281;SHT31;56392;51.082;17.080;2024-03-02T07:11:48;10.77;86.53
69281;SHT31;56392;51.082;17.080;2024-03-02T07:17:18;11.07;85.22
69281;SHT31;56392;51.082;17.080;2024-03-02T07:22:42;12.12;83.56
69281;SHT31;56392;51.082;17.080;2024-03-02T07:28:06;12.84;79.93
69281;SHT31;56392;51.082;17.080;2024-03-02T07:33:31;13.20;79.34
69281;SHT31;56392;51.082;17.080;2024-03-02T07:38:54;14.29;74.91
69281;SHT31;56392;51.082;17.080;2024-03-02T07:44:18;15.75;71.62
69281;SHT31;56392;51.082;17.080;2024-03-02T07:49:45;19.02;59.85
69281;SHT31;56392;51.082;17.080;2024-03-02T07:55:09;18.88;60.40
69281;SHT31;56392;51.082;17.080;2024-03-02T08:00:32;16.70;64.47
69281;SHT31;56392;51.082;17.080;2024-03-02T08:05:57;15.41;68.59
69281;SHT31;56392;51.082;17.080;2024-03-02T08:11:20;14.45;70.83
69281;SHT31;56392;51.082;17.080;2024-03-02T08:16:46;14.93;70.57
69281;SHT31;56392;51.082;17.080;2024-03-02T08:22:13;14.58;71.48
69281;SHT31;56392;51.082;17.080;2024-03-02T08:27:36;15.51;69.75
69281;SHT31;56392;51.082;17.080;2024-03-02T08:33:04;15.75;69.23
69281;SHT31;56392;51.082;17.080;2024-03-02T08:38:29;15.51;68.90
69281;SHT31;56392;51.082;17.080;2024-03-02T08:43:55;15.88;68.77
69281;SHT31;56392;51.082;17.080;2024-03-02T08:49:23;16.20;66.87
69281;SHT31;56392;51.082;17.080;2024-03-02T08:54:48;16.78;65.97
69281;SHT31;56392;51.082;17.080;2024-03-02T09:00:12;16.74;65.29
69281;SHT31;56392;51.082;17.080;2024-03-02T09:05:36;16.36;66.43
69281;SHT31;56392;51.082;17.080;2024-03-02T09:11:01;16.08;67.29
69281;SHT31;56392;51.082;17.080;2024-03-02T09:16:25;16.02;67.58
69281;SHT31;56392;51.082;17.080;2024-03-02T09:21:52;15.72;68.13
69281;SHT31;56392;51.082;17.080;2024-03-02T09:27:19;16.14;67.88
69281;SHT31;56392;51.082;17.080;2024-03-02T09:32:42;16.13;68.18
69281;SHT31;56392;51.082;17.080;2024-03-02T09:38:05;16.17;67.47
69281;SHT31;56392;51.082;17.080;2024-03-02T09:43:30;16.23;67.85
69281;SHT31;56392;51.082;17.080;2024-03-02T09:48:55;16.22;67.41
69281;SHT31;56392;51.082;17.080;2024-03-02T09:54:18;16.26;66.76
69281;SHT31;56392;51.082;17.080;2024-03-02T09:59:44;16.37;67.31
69281;SHT31;56392;51.082;17.080;2024-03-02T10:05:08;16.19;67.41
69281;SHT31;56392;51.082;17.080;2024-03-02T10:10:37;16.51;67.15
69281;SHT31;56392;51.082;17.080;2024-03-02T10:16:11;16.39;67.03
69281;SHT31;56392;51.082;17.080;2024-03-02T10:21:34;16.20;67.58
69281;SHT31;56392;51.082;17.080;2024-03-02T10:26:57;16.49;66.93
69281;SHT31;56392;51.082;17.080;2024-03-02T10:32:22;16.54;66.64
69281;SHT31;56392;51.082;17.080;2024-03-02T10:37:47;16.37;66.10
69281;SHT31;56392;51.082;17.080;2024-03-02T10:43:10;16.34;67.10
69281;SHT31;56392;51.082;17.080;2024-03-02T10:48:38;16.24;67.29
69281;SHT31;56392;51.082;17.080;2024-03-02T10:54:03;16.34;67.63
69281;SHT31;56392;51.082;17.080;2024-03-02T10:59:27;16.47;67.43
69281;SHT31;56392;51.082;17.080;2024-03-02T11:04:54;16.64;67.35
69281;SHT31;56392;51.082;17.080;2024-03-02T11:10:18;16.50;67.08
69281;SHT31;56392;51.082;17.080;2024-03-02T11:15:43;16.53;67.63
69281;SHT31;56392;51.082;17.080;2024-03-02T11:21:08;16.56;66.75
69281;SHT31;56392;51.082;17.080;2024-03-02T11:26:38;16.59;66.79
69281;SHT31;56392;51.082;17.080;2024-03-02T11:32:02;16.68;66.82
69281;SHT31;56392;51.082;17.080;2024-03-02T11:37:26;16.13;66.66
69281;SHT31;56392;51.082;17.080;2024-03-02T11:42:50;16.29;66.91
69281;SHT31;56392;51.082;17.080;2024-03-02T11:48:14;16.12;67.95
69281;SHT31;56392;51.082;17.080;2024-03-02T11:53:40;15.96;67.07
69281;SHT31;56392;51.082;17.080;2024-03-02T11:59:04;15.92;67.71
69281;SHT31;56392;51.082;17.080;2024-03-02T12:04:29;16.06;68.10
69281;SHT31;56392;51.082;17.080;2024-03-02T12:10:01;16.10;66.94
69281;SHT31;56392;51.082;17.080;2024-03-02T12:15:25;16.30;66.92
69281;SHT31;56392;51.082;17.080;2024-03-02T12:20:50;16.20;66.38
69281;SHT31;56392;51.082;17.080;2024-03-02T12:26:15;16.24;66.52
69281;SHT31;56392;51.082;17.080;2024-03-02T12:31:39;16.17;66.66
69281;SHT31;56392;51.082;17.080;2024-03-02T12:37:02;16.22;66.60
69281;SHT31;56392;51.082;17.080;2024-03-02T12:42:27;16.30;65.76
69281;SHT31;56392;51.082;17.080;2024-03-02T12:47:50;16.41;66.04
69281;SHT31;56392;51.082;17.080;2024-03-02T12:53:15;16.49;66.78
69281;SHT31;56392;51.082;17.080;2024-03-02T12:58:41;16.12;66.24
69281;SHT31;56392;51.082;17.080;2024-03-02T13:04:04;16.10;66.06
69281;SHT31;56392;51.082;17.080;2024-03-02T13:09:27;16.34;66.34
69281;SHT31;56392;51.082;17.080;2024-03-02T13:14:52;16.43;65.76
69281;SHT31;56392;51.082;17.080;2024-03-02T13:20:16;16.33;66.43
69281;SHT31;56392;51.082;17.080;2024-03-02T13:25:40;15.95;67.66
69281;SHT31;56392;51.082;17.080;2024-03-02T13:31:07;15.71;68.23
69281;SHT31;56392;51.082;17.080;2024-03-02T13:36:30;15.92;68.19
69281;SHT31;56392;51.082;17.080;2024-03-02T13:41:53;16.00;67.77
69281;SHT31;56392;51.082;17.080;2024-03-02T13:47:26;15.83;67.32
69281;SHT31;56392;51.082;17.080;2024-03-02T13:52:49;15.73;68.22
69281;SHT31;56392;51.082;17.080;2024-03-02T13:58:13;15.68;68.55
69281;SHT31;56392;51.082;17.080;2024-03-02T14:03:37;15.35;68.80
69281;SHT31;56392;51.082;17.080;2024-03-02T14:09:00;15.30;69.02
69281;SHT31;56392;51.082;17.080;2024-03-02T14:14:23;15.21;69.20
69281;SHT31;56392;51.082;17.080;2024-03-02T14:19:48;15.14;69.32
69281;SHT31;56392;51.082;17.080;2024-03-02T14:25:11;15.04;70.07
69281;SHT31;56392;51.082;17.080;2024-03-02T14:30:34;14.86;70.52
69281;SHT31;56392;51.082;17.080;2024-03-02T14:35:58;14.75;70.88
69281;SHT31;56392;51.082;17.080;2024-03-02T14:41:21;14.70;71.32
69281;SHT31;56392;51.082;17.080;2024-03-02T14:46:46;14.59;71.94
69281;SHT31;56392;51.082;17.080;2024-03-02T14:52:12;14.53;72.54
69281;SHT31;56392;51.082;17.080;2024-03-02T14:57:36;14.33;72.99
69281;SHT31;56392;51.082;17.080;2024-03-02T15:02:59;14.31;73.09
69281;SHT31;56392;51.082;17.080;2024-03-02T15:08:23;14.26;73.30
69281;SHT31;56392;51.082;17.080;2024-03-02T15:13:47;14.21;73.83
69281;SHT31;56392;51.082;17.080;2024-03-02T15:19:10;14.08;74.42
69281;SHT31;56392;51.082;17.080;2024-03-02T15:24:34;13.92;75.29
69281;SHT31;56392;51.082;17.080;2024-03-02T15:29:57;13.82;75.61
69281;SHT31;56392;51.082;17.080;2024-03-02T15:35:20;13.82;75.39
69281;SHT31;56392;51.082;17.080;2024-03-02T15:40:45;13.69;75.86
69281;SHT31;56392;51.082;17.080;2024-03-02T15:46:08;13.63;75.78
69281;SHT31;56392;51.082;17.080;2024-03-02T15:51:32;13.60;75.59
69281;SHT31;56392;51.082;17.080;2024-03-02T15:56:56;13.49;75.78
69281;SHT31;56392;51.082;17.080;2024-03-02T16:02:19;13.47;75.91
69281;SHT31;56392;51.082;17.080;2024-03-02T16:07:42;13.44;76.08
69281;SHT31;56392;51.082;17.080;2024-03-02T16:13:07;13.35;76.14
69281;SHT31;56392;51.082;17.080;2024-03-02T16:18:30;13.33;76.27
69281;SHT31;56392;51.082;17.080;2024-03-02T16:23:53;13.29;76.31
69281;SHT31;56392;51.082;17.080;2024-03-02T16:29:18;13.22;76.61
69281;SHT31;56392;51.082;17.080;2024-03-02T16:34:41;13.10;76.79
69281;SHT31;56392;51.082;17.080;2024-03-02T16:40:04;13.00;76.86
69281;SHT31;56392;51.082;17.080;2024-03-02T16:45:29;12.96;76.90
69281;SHT31;56392;51.082;17.080;2024-03-02T16:50:53;12.82;77.49
69281;SHT31;56392;51.082;17.080;2024-03-02T16:56:16;12.77;77.63
69281;SHT31;56392;51.082;17.080;2024-03-02T17:01:41;12.69;77.86
69281;SHT31;56392;51.082;17.080;2024-03-02T17:07:04;12.62;78.23
69281;SHT31;56392;51.082;17.080;2024-03-02T17:12:27;12.57;78.68
69281;SHT31;56392;51.082;17.080;2024-03-02T17:17:52;12.48;78.82
69281;SHT31;56392;51.082;17.080;2024-03-02T17:23:15;12.38;79.38
69281;SHT31;56392;51.082;17.080;2024-03-02T17:28:38;12.27;79.85
69281;SHT31;56392;51.082;17.080;2024-03-02T17:34:04;12.16;80.28
69281;SHT31;56392;51.082;17.080;2024-03-02T17:39:27;12.06;80.56
69281;SHT31;56392;51.082;17.080;2024-03-02T17:44:50;11.94;81.15
69281;SHT31;56392;51.082;17.080;2024-03-02T17:50:14;11.83;80.98
69281;SHT31;56392;51.082;17.080;2024-03-02T17:55:38;11.77;81.55
69281;SHT31;56392;51.082;17.080;2024-03-02T18:01:01;11.66;81.81
69281;SHT31;56392;51.082;17.080;2024-03-02T18:06:26;11.52;82.73
69281;SHT31;56392;51.082;17.080;2024-03-02T18:11:49;11.55;82.76
69281;SHT31;56392;51.082;17.080;2024-03-02T18:17:12;11.45;83.38
69281;SHT31;56392;51.082;17.080;2024-03-02T18:22:38;11.42;83.49
69281;SHT31;56392;51.082;17.080;2024-03-02T18:28:03;11.39;83.41
69281;SHT31;56392;51.082;17.080;2024-03-02T18:33:28;11.38;83.36
69281;SHT31;56392;51.082;17.080;2024-03-02T18:38:54;11.36;83.59
69281;SHT31;56392;51.082;17.080;2024-03-02T18:44:17;11.31;83.69
69281;SHT31;56392;51.082;17.080;2024-03-02T18:49:42;11.27;83.93
69281;SHT31;56392;51.082;17.080;2024-03-02T18:55:08;11.25;83.78
69281;SHT31;56392;51.082;17.080;2024-03-02T19:00:33;11.18;84.01
69281;SHT31;56392;51.082;17.080;2024-03-02T19:05:57;11.19;83.92
69281;SHT31;56392;51.082;17.080;2024-03-02T19:11:21;11.14;84.06
69281;SHT31;56392;51.082;17.080;2024-03-02T19:16:44;11.14;84.03
69281;SHT31;56392;51.082;17.080;2024-03-02T19:22:07;11.08;84.06
69281;SHT31;56392;51.082;17.080;2024-03-02T19:27:32;11.05;84.17
69281;SHT31;56392;51.082;17.080;2024-03-02T19:32:56;11.03;84.24
69281;SHT31;56392;51.082;17.080;2024-03-02T19:38:19;11.03;83.99
69281;SHT31;56392;51.082;17.080;2024-03-02T19:43:43;11.07;83.75
69281;SHT31;56392;51.082;17.080;2024-03-02T19:49:07;11.01;83.78
69281;SHT31;56392;51.082;17.080;2024-03-02T19:54:32;10.90;84.09
69281;SHT31;56392;51.082;17.080;2024-03-02T19:59:56;10.83;84.47
69281;SHT31;56392;51.082;17.080;2024-03-02T20:05:19;10.74;84.34
69281;SHT31;56392;51.082;17.080;2024-03-02T20:10:43;10.70;84.67
69281;SHT31;56392;51.082;17.080;2024-03-02T20:16:08;10.67;84.75
69281;SHT31;56392;51.082;17.080;2024-03-02T20:21:31;10.70;84.65
69281;SHT31;56392;51.082;17.080;2024-03-02T20:26:56;10.64;84.82
69281;SHT31;56392;51.082;17.080;2024-03-02T20:32:21;10.63;84.78
69281;SHT31;56392;51.082;17.080;2024-03-02T20:37:44;10.61;84.86
69281;SHT31;56392;51.082;17.080;2024-03-02T20:43:08;10.64;84.87
69281;SHT31;56392;51.082;17.080;2024-03-02T20:48:34;10.61;84.95
69281;SHT31;56392;51.082;17.080;2024-03-02T20:53:57;10.64;85.02
69281;SHT31;56392;51.082;17.080;2024-03-02T20:59:23;10.64;85.42
69281;SHT31;56392;51.082;17.080;2024-03-02T21:04:50;10.66;85.69
69281;SHT31;56392;51.082;17.080;2024-03-02T21:10:13;10.64;86.00
69281;SHT31;56392;51.082;17.080;2024-03-02T21:15:36;10.70;85.68
69281;SHT31;56392;51.082;17.080;2024-03-02T21:21:01;10.68;85.78
69281;SHT31;56392;51.082;17.080;2024-03-02T21:26:24;10.71;85.58
69281;SHT31;56392;51.082;17.080;2024-03-02T21:31:50;10.71;85.66
69281;SHT31;56392;51.082;17.080;2024-03-02T21:37:16;10.67;85.81
69281;SHT31;56392;51.082;17.080;2024-03-02T21:42:40;10.60;85.88
69281;SHT31;56392;51.082;17.080;2024-03-02T21:48:03;10.55;86.12
69281;SHT31;56392;51.082;17.080;2024-03-02T21:53:28;10.61;85.91
69281;SHT31;56392;51.082;17.080;2024-03-02T21:58:52;10.56;86.01
69281;SHT31;56392;51.082;17.080;2024-03-02T22:04:15;10.52;86.17
69281;SHT31;56392;51.082;17.080;2024-03-02T22:09:39;10.49;86.26
69281;SHT31;56392;51.082;17.080;2024-03-02T22:15:03;10.49;86.20
69281;SHT31;56392;51.082;17.080;2024-03-02T22:20:26;10.52;86.34
69281;SHT31;56392;51.082;17.080;2024-03-02T22:25:51;10.53;86.12
69281;SHT31;56392;51.082;17.080;2024-03-02T22:31:15;10.55;86.12
69281;SHT31;56392;51.082;17.080;2024-03-02T22:36:38;10.56;86.04
69281;SHT31;56392;51.082;17.080;2024-03-02T22:42:03;10.57;85.92
69281;SHT31;56392;51.082;17.080;2024-03-02T22:47:26;10.57;85.84
69281;SHT31;56392;51.082;17.080;2024-03-02T22:52:49;10.63;85.57
69281;SHT31;56392;51.082;17.080;2024-03-02T22:58:14;10.64;85.71
69281;SHT31;56392;51.082;17.080;2024-03-02T23:03:39;10.63;85.66
69281;SHT31;56392;51.082;17.080;2024-03-02T23:09:03;10.70;85.45
69281;SHT31;56392;51.082;17.080;2024-03-02T23:14:28;10.67;85.60
69281;SHT31;56392;51.082;17.080;2024-03-02T23:19:51;10.68;85.56
69281;SHT31;56392;51.082;17.080;2024-03-02T23:25:14;10.77;85.36
69281;SHT31;56392;51.082;17.080;2024-03-02T23:30:38;10.76;85.43
69281;SHT31;56392;51.082;17.080;2024-03-02T23:36:02;10.76;85.42
69281;SHT31;56392;51.082;17.080;2024-03-02T23:41:25;10.80;85.40
69281;SHT31;56392;51.082;17.080;2024-03-02T23:46:49;10.78;85.38
69281;SHT31;56392;51.082;17.080;2024-03-02T23:52:12;10.87;85.24
69281;SHT31;56392;51.082;17.080;2024-03-02T23:57:36;10.83;85.41
